Fremont, Kentucky
Current Conditions -  °F | °C
As of 3:36 AM on Sunday 26 Oct 2014 (Local Time) from KPAH Reporting Station
Haze Haze  
Wind Chill: 53°   Ceiling: 1200
Heat Index: 53°   Visibility: 3mi
Dew Point: 52°   Wind: 0mph
Humidity: 96%   Direction: NA
Pressure: 30"   Gusts: NA
Location:  37.0331°N, 88.716°W
Report Text: KPAH 260836Z AUTO 00000KT 3SM BR BKN012 12/11 A3000 RMK AO2 T01170111
Loading
Personal Weather Stations






























Interactive Weather Map
Tropical Storm Tracking
New forecast layout! Learn more

10-Day Weather Forecast

Advertisements
Track Severe Weather on mobile